sensor_id;sensor_type;location;lat;lon;timestamp;P1;durP1;ratioP1;P2;durP2;ratioP2
45784;SDS011;31489;51.404;5.474;2024-02-04T00:01:42;8.57;;;7.68;;
45784;SDS011;31489;51.404;5.474;2024-02-04T00:04:07;9.15;;;7.50;;
45784;SDS011;31489;51.404;5.474;2024-02-04T00:06:33;9.10;;;8.18;;
45784;SDS011;31489;51.404;5.474;2024-02-04T00:08:59;8.80;;;7.68;;
45784;SDS011;31489;51.404;5.474;2024-02-04T00:11:25;8.30;;;7.35;;
45784;SDS011;31489;51.404;5.474;2024-02-04T00:13:50;8.15;;;7.25;;
45784;SDS011;31489;51.404;5.474;2024-02-04T00:16:16;7.20;;;6.50;;
45784;SDS011;31489;51.404;5.474;2024-02-04T00:18:41;7.47;;;6.78;;
45784;SDS011;31489;51.404;5.474;2024-02-04T00:21:08;7.88;;;5.78;;
45784;SDS011;31489;51.404;5.474;2024-02-04T00:23:34;8.35;;;6.45;;
45784;SDS011;31489;51.404;5.474;2024-02-04T00:25:59;8.25;;;6.53;;
45784;SDS011;31489;51.404;5.474;2024-02-04T00:28:25;6.57;;;5.95;;
45784;SDS011;31489;51.404;5.474;2024-02-04T00:30:52;6.53;;;5.88;;
45784;SDS011;31489;51.404;5.474;2024-02-04T00:33:20;7.82;;;6.55;;
45784;SDS011;31489;51.404;5.474;2024-02-04T00:35:46;6.50;;;5.90;;
45784;SDS011;31489;51.404;5.474;2024-02-04T00:38:12;9.82;;;6.75;;
45784;SDS011;31489;51.404;5.474;2024-02-04T00:40:37;7.25;;;6.55;;
45784;SDS011;31489;51.404;5.474;2024-02-04T00:43:03;7.70;;;6.90;;
45784;SDS011;31489;51.404;5.474;2024-02-04T00:45:29;7.65;;;6.95;;
45784;SDS011;31489;51.404;5.474;2024-02-04T00:47:54;7.70;;;7.00;;
45784;SDS011;31489;51.404;5.474;2024-02-04T00:50:20;7.50;;;6.80;;
45784;SDS011;31489;51.404;5.474;2024-02-04T00:52:45;7.65;;;6.95;;
45784;SDS011;31489;51.404;5.474;2024-02-04T00:55:11;8.77;;;7.93;;
45784;SDS011;31489;51.404;5.474;2024-02-04T00:57:37;9.68;;;8.20;;
45784;SDS011;31489;51.404;5.474;2024-02-04T01:00:02;9.73;;;8.82;;
45784;SDS011;31489;51.404;5.474;2024-02-04T01:02:29;8.95;;;8.15;;
45784;SDS011;31489;51.404;5.474;2024-02-04T01:04:55;10.55;;;9.55;;
45784;SDS011;31489;51.404;5.474;2024-02-04T01:07:21;10.38;;;9.38;;
45784;SDS011;31489;51.404;5.474;2024-02-04T01:09:46;11.18;;;10.05;;
45784;SDS011;31489;51.404;5.474;2024-02-04T01:12:12;11.13;;;10.02;;
45784;SDS011;31489;51.404;5.474;2024-02-04T01:14:38;11.27;;;10.07;;
45784;SDS011;31489;51.404;5.474;2024-02-04T01:17:03;11.27;;;10.18;;
45784;SDS011;31489;51.404;5.474;2024-02-04T01:19:29;11.63;;;10.50;;
45784;SDS011;31489;51.404;5.474;2024-02-04T01:21:54;12.38;;;10.80;;
45784;SDS011;31489;51.404;5.474;2024-02-04T01:24:20;11.68;;;10.57;;
45784;SDS011;31489;51.404;5.474;2024-02-04T01:26:46;11.63;;;10.52;;
45784;SDS011;31489;51.404;5.474;2024-02-04T01:29:11;12.35;;;11.23;;
45784;SDS011;31489;51.404;5.474;2024-02-04T01:31:37;10.90;;;9.82;;
45784;SDS011;31489;51.404;5.474;2024-02-04T01:34:03;11.23;;;10.13;;
45784;SDS011;31489;51.404;5.474;2024-02-04T01:36:28;11.57;;;10.48;;
45784;SDS011;31489;51.404;5.474;2024-02-04T01:38:55;11.73;;;10.48;;
45784;SDS011;31489;51.404;5.474;2024-02-04T01:41:21;13.55;;;11.23;;
45784;SDS011;31489;51.404;5.474;2024-02-04T01:43:49;11.77;;;10.52;;
45784;SDS011;31489;51.404;5.474;2024-02-04T01:46:15;11.20;;;10.02;;
45784;SDS011;31489;51.404;5.474;2024-02-04T01:48:40;12.10;;;10.80;;
45784;SDS011;31489;51.404;5.474;2024-02-04T01:51:06;16.23;;;11.32;;
45784;SDS011;31489;51.404;5.474;2024-02-04T01:53:32;12.10;;;10.52;;
45784;SDS011;31489;51.404;5.474;2024-02-04T01:55:59;13.90;;;10.48;;
45784;SDS011;31489;51.404;5.474;2024-02-04T01:58:25;13.30;;;10.48;;
45784;SDS011;31489;51.404;5.474;2024-02-04T02:00:51;11.95;;;9.85;;
45784;SDS011;31489;51.404;5.474;2024-02-04T02:03:17;10.93;;;9.82;;
45784;SDS011;31489;51.404;5.474;2024-02-04T02:05:44;10.25;;;8.82;;
45784;SDS011;31489;51.404;5.474;2024-02-04T02:08:11;14.52;;;10.07;;
45784;SDS011;31489;51.404;5.474;2024-02-04T02:10:37;11.02;;;9.52;;
45784;SDS011;31489;51.404;5.474;2024-02-04T02:13:09;14.57;;;9.73;;
45784;SDS011;31489;51.404;5.474;2024-02-04T02:15:47;16.33;;;10.27;;
45784;SDS011;31489;51.404;5.474;2024-02-04T02:18:34;15.25;;;9.25;;
45784;SDS011;31489;51.404;5.474;2024-02-04T02:21:16;14.10;;;10.00;;
45784;SDS011;31489;51.404;5.474;2024-02-04T02:24:03;16.05;;;10.88;;
45784;SDS011;31489;51.404;5.474;2024-02-04T02:26:31;22.35;;;11.15;;
45784;SDS011;31489;51.404;5.474;2024-02-04T02:28:57;18.98;;;10.40;;
45784;SDS011;31489;51.404;5.474;2024-02-04T02:31:23;14.55;;;10.35;;
45784;SDS011;31489;51.404;5.474;2024-02-04T02:33:48;19.38;;;10.77;;
45784;SDS011;31489;51.404;5.474;2024-02-04T02:36:16;16.17;;;10.57;;
45784;SDS011;31489;51.404;5.474;2024-02-04T02:38:51;13.68;;;9.43;;
45784;SDS011;31489;51.404;5.474;2024-02-04T02:41:24;20.17;;;10.18;;
45784;SDS011;31489;51.404;5.474;2024-02-04T02:43:53;15.60;;;9.35;;
45784;SDS011;31489;51.404;5.474;2024-02-04T02:46:21;13.10;;;8.55;;
45784;SDS011;31489;51.404;5.474;2024-02-04T02:48:48;14.07;;;8.45;;
45784;SDS011;31489;51.404;5.474;2024-02-04T02:51:13;17.05;;;9.00;;
45784;SDS011;31489;51.404;5.474;2024-02-04T02:53:39;11.98;;;7.97;;
45784;SDS011;31489;51.404;5.474;2024-02-04T02:56:05;16.02;;;8.35;;
45784;SDS011;31489;51.404;5.474;2024-02-04T02:58:31;14.50;;;7.65;;
45784;SDS011;31489;51.404;5.474;2024-02-04T03:00:57;15.30;;;7.10;;
45784;SDS011;31489;51.404;5.474;2024-02-04T03:03:23;16.02;;;7.22;;
45784;SDS011;31489;51.404;5.474;2024-02-04T03:05:48;11.73;;;7.82;;
45784;SDS011;31489;51.404;5.474;2024-02-04T03:08:14;17.48;;;7.97;;
45784;SDS011;31489;51.404;5.474;2024-02-04T03:10:39;16.67;;;7.80;;
45784;SDS011;31489;51.404;5.474;2024-02-04T03:13:05;10.60;;;6.90;;
45784;SDS011;31489;51.404;5.474;2024-02-04T03:15:30;13.50;;;7.22;;
45784;SDS011;31489;51.404;5.474;2024-02-04T03:17:56;13.88;;;6.78;;
45784;SDS011;31489;51.404;5.474;2024-02-04T03:20:22;13.13;;;7.10;;
45784;SDS011;31489;51.404;5.474;2024-02-04T03:22:47;11.45;;;6.65;;
45784;SDS011;31489;51.404;5.474;2024-02-04T03:25:13;12.63;;;7.00;;
45784;SDS011;31489;51.404;5.474;2024-02-04T03:27:42;8.90;;;6.28;;
45784;SDS011;31489;51.404;5.474;2024-02-04T03:30:08;14.30;;;7.45;;
45784;SDS011;31489;51.404;5.474;2024-02-04T03:32:33;14.82;;;6.88;;
45784;SDS011;31489;51.404;5.474;2024-02-04T03:35:00;14.77;;;6.90;;
45784;SDS011;31489;51.404;5.474;2024-02-04T03:37:26;14.18;;;6.90;;
45784;SDS011;31489;51.404;5.474;2024-02-04T03:39:51;14.15;;;7.13;;
45784;SDS011;31489;51.404;5.474;2024-02-04T03:42:17;15.98;;;7.05;;
45784;SDS011;31489;51.404;5.474;2024-02-04T03:44:44;15.38;;;7.40;;
45784;SDS011;31489;51.404;5.474;2024-02-04T03:47:10;13.98;;;7.45;;
45784;SDS011;31489;51.404;5.474;2024-02-04T03:49:35;15.32;;;8.63;;
45784;SDS011;31489;51.404;5.474;2024-02-04T03:52:01;12.32;;;7.72;;
45784;SDS011;31489;51.404;5.474;2024-02-04T03:54:27;11.90;;;7.72;;
45784;SDS011;31489;51.404;5.474;2024-02-04T03:56:52;16.67;;;8.25;;
45784;SDS011;31489;51.404;5.474;2024-02-04T03:59:18;15.60;;;7.85;;
45784;SDS011;31489;51.404;5.474;2024-02-04T04:01:48;14.82;;;7.32;;
45784;SDS011;31489;51.404;5.474;2024-02-04T04:04:14;13.07;;;7.78;;
45784;SDS011;31489;51.404;5.474;2024-02-04T04:06:40;16.55;;;7.22;;
45784;SDS011;31489;51.404;5.474;2024-02-04T04:09:07;14.20;;;7.40;;
45784;SDS011;31489;51.404;5.474;2024-02-04T04:11:32;16.60;;;7.95;;
45784;SDS011;31489;51.404;5.474;2024-02-04T04:13:58;14.77;;;8.13;;
45784;SDS011;31489;51.404;5.474;2024-02-04T04:16:26;15.30;;;8.32;;
45784;SDS011;31489;51.404;5.474;2024-02-04T04:18:52;12.32;;;8.40;;
45784;SDS011;31489;51.404;5.474;2024-02-04T04:21:17;16.17;;;8.43;;
45784;SDS011;31489;51.404;5.474;2024-02-04T04:23:46;15.10;;;8.80;;
45784;SDS011;31489;51.404;5.474;2024-02-04T04:26:11;17.65;;;8.80;;
45784;SDS011;31489;51.404;5.474;2024-02-04T04:28:37;15.68;;;8.70;;
45784;SDS011;31489;51.404;5.474;2024-02-04T04:31:03;15.05;;;8.45;;
45784;SDS011;31489;51.404;5.474;2024-02-04T04:33:29;17.33;;;9.18;;
45784;SDS011;31489;51.404;5.474;2024-02-04T04:35:55;19.10;;;9.45;;
45784;SDS011;31489;51.404;5.474;2024-02-04T04:38:20;11.48;;;8.40;;
45784;SDS011;31489;51.404;5.474;2024-02-04T04:40:46;18.60;;;8.75;;
45784;SDS011;31489;51.404;5.474;2024-02-04T04:43:12;16.80;;;8.95;;
45784;SDS011;31489;51.404;5.474;2024-02-04T04:45:38;16.40;;;8.32;;
45784;SDS011;31489;51.404;5.474;2024-02-04T04:48:03;21.65;;;9.13;;
45784;SDS011;31489;51.404;5.474;2024-02-04T04:50:29;15.63;;;10.15;;
45784;SDS011;31489;51.404;5.474;2024-02-04T04:52:55;19.70;;;11.02;;
45784;SDS011;31489;51.404;5.474;2024-02-04T04:55:21;21.02;;;12.65;;
45784;SDS011;31489;51.404;5.474;2024-02-04T04:57:46;21.42;;;14.65;;
45784;SDS011;31489;51.404;5.474;2024-02-04T05:00:12;20.83;;;16.08;;
45784;SDS011;31489;51.404;5.474;2024-02-04T05:02:42;25.10;;;17.17;;
45784;SDS011;31489;51.404;5.474;2024-02-04T05:05:10;22.38;;;17.13;;
45784;SDS011;31489;51.404;5.474;2024-02-04T05:07:36;25.90;;;18.98;;
45784;SDS011;31489;51.404;5.474;2024-02-04T05:10:03;28.10;;;20.98;;
45784;SDS011;31489;51.404;5.474;2024-02-04T05:12:30;29.40;;;21.88;;
45784;SDS011;31489;51.404;5.474;2024-02-04T05:14:57;30.75;;;23.77;;
45784;SDS011;31489;51.404;5.474;2024-02-04T05:17:22;28.15;;;21.95;;
45784;SDS011;31489;51.404;5.474;2024-02-04T05:19:48;33.90;;;22.70;;
45784;SDS011;31489;51.404;5.474;2024-02-04T05:22:14;38.63;;;24.48;;
45784;SDS011;31489;51.404;5.474;2024-02-04T05:24:40;32.30;;;23.92;;
45784;SDS011;31489;51.404;5.474;2024-02-04T05:27:06;26.02;;;23.23;;
45784;SDS011;31489;51.404;5.474;2024-02-04T05:29:31;32.92;;;25.50;;
45784;SDS011;31489;51.404;5.474;2024-02-04T05:31:57;33.05;;;23.88;;
45784;SDS011;31489;51.404;5.474;2024-02-04T05:34:23;31.15;;;24.77;;
45784;SDS011;31489;51.404;5.474;2024-02-04T05:36:48;30.45;;;24.05;;
45784;SDS011;31489;51.404;5.474;2024-02-04T05:39:14;33.50;;;25.63;;
45784;SDS011;31489;51.404;5.474;2024-02-04T05:41:41;35.80;;;25.48;;
45784;SDS011;31489;51.404;5.474;2024-02-04T05:44:08;37.42;;;26.02;;
45784;SDS011;31489;51.404;5.474;2024-02-04T05:46:37;36.58;;;25.77;;
45784;SDS011;31489;51.404;5.474;2024-02-04T05:49:03;32.85;;;24.85;;
45784;SDS011;31489;51.404;5.474;2024-02-04T05:51:30;34.60;;;24.80;;
45784;SDS011;31489;51.404;5.474;2024-02-04T05:53:57;30.30;;;22.67;;
45784;SDS011;31489;51.404;5.474;2024-02-04T05:56:23;30.50;;;24.40;;
45784;SDS011;31489;51.404;5.474;2024-02-04T05:58:48;36.90;;;23.77;;
45784;SDS011;31489;51.404;5.474;2024-02-04T06:01:14;36.17;;;24.23;;
45784;SDS011;31489;51.404;5.474;2024-02-04T06:03:41;31.35;;;23.40;;
45784;SDS011;31489;51.404;5.474;2024-02-04T06:06:08;29.40;;;23.83;;
45784;SDS011;31489;51.404;5.474;2024-02-04T06:08:34;31.30;;;22.95;;
45784;SDS011;31489;51.404;5.474;2024-02-04T06:11:00;28.73;;;21.60;;
45784;SDS011;31489;51.404;5.474;2024-02-04T06:13:25;28.70;;;20.63;;
45784;SDS011;31489;51.404;5.474;2024-02-04T06:15:51;24.88;;;20.20;;
45784;SDS011;31489;51.404;5.474;2024-02-04T06:18:17;29.00;;;21.30;;
45784;SDS011;31489;51.404;5.474;2024-02-04T06:20:42;27.98;;;18.30;;
45784;SDS011;31489;51.404;5.474;2024-02-04T06:23:08;23.77;;;19.48;;
45784;SDS011;31489;51.404;5.474;2024-02-04T06:25:33;23.77;;;17.27;;
45784;SDS011;31489;51.404;5.474;2024-02-04T06:27:59;23.23;;;17.25;;
45784;SDS011;31489;51.404;5.474;2024-02-04T06:30:25;25.80;;;17.83;;
45784;SDS011;31489;51.404;5.474;2024-02-04T06:32:50;22.90;;;17.80;;
45784;SDS011;31489;51.404;5.474;2024-02-04T06:35:16;25.85;;;17.98;;
45784;SDS011;31489;51.404;5.474;2024-02-04T06:37:42;23.20;;;17.98;;
45784;SDS011;31489;51.404;5.474;2024-02-04T06:40:10;22.13;;;17.10;;
45784;SDS011;31489;51.404;5.474;2024-02-04T06:42:36;20.58;;;16.98;;
45784;SDS011;31489;51.404;5.474;2024-02-04T06:45:02;21.48;;;18.30;;
45784;SDS011;31489;51.404;5.474;2024-02-04T06:47:28;21.10;;;17.67;;
45784;SDS011;31489;51.404;5.474;2024-02-04T06:49:54;20.65;;;17.33;;
45784;SDS011;31489;51.404;5.474;2024-02-04T06:52:19;22.13;;;17.83;;
45784;SDS011;31489;51.404;5.474;2024-02-04T06:54:45;20.58;;;18.08;;
45784;SDS011;31489;51.404;5.474;2024-02-04T06:57:11;22.20;;;18.63;;
45784;SDS011;31489;51.404;5.474;2024-02-04T06:59:36;22.38;;;19.48;;
45784;SDS011;31489;51.404;5.474;2024-02-04T07:02:02;22.08;;;19.17;;
45784;SDS011;31489;51.404;5.474;2024-02-04T07:04:28;20.42;;;17.65;;
45784;SDS011;31489;51.404;5.474;2024-02-04T07:06:53;22.05;;;17.83;;
45784;SDS011;31489;51.404;5.474;2024-02-04T07:09:19;23.02;;;18.55;;
45784;SDS011;31489;51.404;5.474;2024-02-04T07:11:45;21.27;;;18.88;;
45784;SDS011;31489;51.404;5.474;2024-02-04T07:14:11;23.10;;;18.88;;
45784;SDS011;31489;51.404;5.474;2024-02-04T07:16:36;24.08;;;18.92;;
45784;SDS011;31489;51.404;5.474;2024-02-04T07:19:02;26.60;;;19.33;;
45784;SDS011;31489;51.404;5.474;2024-02-04T07:21:28;21.23;;;17.50;;
45784;SDS011;31489;51.404;5.474;2024-02-04T07:23:53;21.77;;;17.98;;
45784;SDS011;31489;51.404;5.474;2024-02-04T07:26:19;25.50;;;19.25;;
45784;SDS011;31489;51.404;5.474;2024-02-04T07:28:44;23.00;;;18.83;;
45784;SDS011;31489;51.404;5.474;2024-02-04T07:31:10;24.35;;;18.83;;
45784;SDS011;31489;51.404;5.474;2024-02-04T07:33:36;22.13;;;18.42;;
45784;SDS011;31489;51.404;5.474;2024-02-04T07:36:02;19.35;;;16.75;;
45784;SDS011;31489;51.404;5.474;2024-02-04T07:38:27;22.73;;;18.13;;
45784;SDS011;31489;51.404;5.474;2024-02-04T07:40:53;19.73;;;16.55;;
45784;SDS011;31489;51.404;5.474;2024-02-04T07:43:20;20.15;;;16.42;;
45784;SDS011;31489;51.404;5.474;2024-02-04T07:45:46;19.02;;;16.30;;
45784;SDS011;31489;51.404;5.474;2024-02-04T07:48:11;18.60;;;16.20;;
45784;SDS011;31489;51.404;5.474;2024-02-04T07:50:37;20.15;;;15.77;;
45784;SDS011;31489;51.404;5.474;2024-02-04T07:53:03;19.25;;;15.93;;
45784;SDS011;31489;51.404;5.474;2024-02-04T07:55:28;21.92;;;16.00;;
45784;SDS011;31489;51.404;5.474;2024-02-04T07:57:54;22.02;;;15.68;;
45784;SDS011;31489;51.404;5.474;2024-02-04T08:00:20;18.17;;;15.85;;
45784;SDS011;31489;51.404;5.474;2024-02-04T08:02:46;19.23;;;15.85;;
45784;SDS011;31489;51.404;5.474;2024-02-04T08:05:12;21.38;;;15.45;;
45784;SDS011;31489;51.404;5.474;2024-02-04T08:07:38;20.38;;;14.80;;
45784;SDS011;31489;51.404;5.474;2024-02-04T08:10:03;19.50;;;16.17;;
45784;SDS011;31489;51.404;5.474;2024-02-04T08:12:30;19.83;;;15.48;;
45784;SDS011;31489;51.404;5.474;2024-02-04T08:14:55;22.13;;;15.82;;
45784;SDS011;31489;51.404;5.474;2024-02-04T08:17:21;18.52;;;15.45;;
45784;SDS011;31489;51.404;5.474;2024-02-04T08:19:47;19.17;;;15.50;;
45784;SDS011;31489;51.404;5.474;2024-02-04T08:22:12;18.80;;;15.52;;
45784;SDS011;31489;51.404;5.474;2024-02-04T08:24:38;19.20;;;15.55;;
45784;SDS011;31489;51.404;5.474;2024-02-04T08:27:04;19.58;;;15.32;;
45784;SDS011;31489;51.404;5.474;2024-02-04T08:29:30;19.15;;;16.23;;
45784;SDS011;31489;51.404;5.474;2024-02-04T08:31:55;19.15;;;16.45;;
45784;SDS011;31489;51.404;5.474;2024-02-04T08:34:21;19.85;;;15.00;;
45784;SDS011;31489;51.404;5.474;2024-02-04T08:36:49;16.50;;;13.25;;
45784;SDS011;31489;51.404;5.474;2024-02-04T08:39:15;18.08;;;14.88;;
45784;SDS011;31489;51.404;5.474;2024-02-04T08:41:41;18.23;;;15.27;;
45784;SDS011;31489;51.404;5.474;2024-02-04T08:44:07;19.27;;;16.08;;
45784;SDS011;31489;51.404;5.474;2024-02-04T08:46:33;19.60;;;15.70;;
45784;SDS011;31489;51.404;5.474;2024-02-04T08:48:58;17.85;;;15.95;;
45784;SDS011;31489;51.404;5.474;2024-02-04T08:51:26;17.17;;;15.00;;
45784;SDS011;31489;51.404;5.474;2024-02-04T08:53:52;20.38;;;15.23;;
45784;SDS011;31489;51.404;5.474;2024-02-04T08:56:17;18.83;;;15.07;;
45784;SDS011;31489;51.404;5.474;2024-02-04T08:58:44;17.23;;;15.40;;
45784;SDS011;31489;51.404;5.474;2024-02-04T09:01:10;17.80;;;13.73;;
45784;SDS011;31489;51.404;5.474;2024-02-04T09:03:36;17.55;;;13.55;;
45784;SDS011;31489;51.404;5.474;2024-02-04T09:06:01;19.33;;;13.70;;
45784;SDS011;31489;51.404;5.474;2024-02-04T09:08:27;14.98;;;13.10;;
45784;SDS011;31489;51.404;5.474;2024-02-04T09:10:53;16.95;;;14.80;;
45784;SDS011;31489;51.404;5.474;2024-02-04T09:13:18;16.48;;;13.52;;
45784;SDS011;31489;51.404;5.474;2024-02-04T09:15:44;16.52;;;13.93;;
45784;SDS011;31489;51.404;5.474;2024-02-04T09:18:10;16.35;;;13.77;;
45784;SDS011;31489;51.404;5.474;2024-02-04T09:20:35;14.93;;;13.38;;
45784;SDS011;31489;51.404;5.474;2024-02-04T09:23:01;16.98;;;13.25;;
45784;SDS011;31489;51.404;5.474;2024-02-04T09:25:28;14.75;;;12.75;;
45784;SDS011;31489;51.404;5.474;2024-02-04T09:27:53;14.40;;;12.90;;
45784;SDS011;31489;51.404;5.474;2024-02-04T09:30:19;19.30;;;13.63;;
45784;SDS011;31489;51.404;5.474;2024-02-04T09:32:45;24.48;;;19.48;;
45784;SDS011;31489;51.404;5.474;2024-02-04T09:35:11;18.77;;;15.30;;
45784;SDS011;31489;51.404;5.474;2024-02-04T09:37:37;16.48;;;13.15;;
45784;SDS011;31489;51.404;5.474;2024-02-04T09:40:03;15.88;;;12.77;;
45784;SDS011;31489;51.404;5.474;2024-02-04T09:42:29;16.55;;;12.82;;
45784;SDS011;31489;51.404;5.474;2024-02-04T09:44:56;16.05;;;12.50;;
45784;SDS011;31489;51.404;5.474;2024-02-04T09:47:29;14.98;;;12.95;;
45784;SDS011;31489;51.404;5.474;2024-02-04T09:49:57;15.57;;;12.70;;
45784;SDS011;31489;51.404;5.474;2024-02-04T09:52:25;15.20;;;11.73;;
45784;SDS011;31489;51.404;5.474;2024-02-04T09:55:01;15.95;;;12.07;;
45784;SDS011;31489;51.404;5.474;2024-02-04T09:57:29;15.07;;;12.00;;
45784;SDS011;31489;51.404;5.474;2024-02-04T09:59:55;13.27;;;10.85;;
45784;SDS011;31489;51.404;5.474;2024-02-04T10:02:21;16.88;;;11.27;;
45784;SDS011;31489;51.404;5.474;2024-02-04T10:04:48;17.17;;;10.98;;
45784;SDS011;31489;51.404;5.474;2024-02-04T10:07:14;16.10;;;10.23;;
45784;SDS011;31489;51.404;5.474;2024-02-04T10:09:41;14.38;;;10.27;;
45784;SDS011;31489;51.404;5.474;2024-02-04T10:12:08;11.70;;;10.32;;
45784;SDS011;31489;51.404;5.474;2024-02-04T10:14:34;15.13;;;9.93;;
45784;SDS011;31489;51.404;5.474;2024-02-04T10:17:00;10.80;;;9.35;;
45784;SDS011;31489;51.404;5.474;2024-02-04T10:19:26;13.18;;;9.30;;
45784;SDS011;31489;51.404;5.474;2024-02-04T10:21:59;13.18;;;9.15;;
45784;SDS011;31489;51.404;5.474;2024-02-04T10:24:25;12.80;;;10.27;;
45784;SDS011;31489;51.404;5.474;2024-02-04T10:26:57;13.15;;;9.95;;
45784;SDS011;31489;51.404;5.474;2024-02-04T10:29:23;10.38;;;8.60;;
45784;SDS011;31489;51.404;5.474;2024-02-04T10:31:56;14.98;;;8.68;;
45784;SDS011;31489;51.404;5.474;2024-02-04T10:34:25;10.93;;;8.55;;
45784;SDS011;31489;51.404;5.474;2024-02-04T10:36:56;12.30;;;8.82;;
45784;SDS011;31489;51.404;5.474;2024-02-04T10:39:22;11.20;;;8.65;;
45784;SDS011;31489;51.404;5.474;2024-02-04T10:41:51;10.25;;;9.02;;
45784;SDS011;31489;51.404;5.474;2024-02-04T10:44:18;9.63;;;8.68;;
45784;SDS011;31489;51.404;5.474;2024-02-04T10:46:47;11.85;;;8.70;;
45784;SDS011;31489;51.404;5.474;2024-02-04T10:49:14;10.95;;;9.75;;
45784;SDS011;31489;51.404;5.474;2024-02-04T10:51:44;12.93;;;8.88;;
45784;SDS011;31489;51.404;5.474;2024-02-04T10:54:11;10.98;;;8.68;;
45784;SDS011;31489;51.404;5.474;2024-02-04T10:56:46;10.32;;;8.30;;
45784;SDS011;31489;51.404;5.474;2024-02-04T10:59:21;12.43;;;9.18;;
45784;SDS011;31489;51.404;5.474;2024-02-04T11:01:47;11.60;;;8.75;;
45784;SDS011;31489;51.404;5.474;2024-02-04T11:04:16;11.77;;;8.25;;
45784;SDS011;31489;51.404;5.474;2024-02-04T11:06:43;11.35;;;8.15;;
45784;SDS011;31489;51.404;5.474;2024-02-04T11:09:12;10.02;;;8.13;;
45784;SDS011;31489;51.404;5.474;2024-02-04T11:11:41;8.30;;;7.05;;
45784;SDS011;31489;51.404;5.474;2024-02-04T11:14:11;9.88;;;7.68;;
45784;SDS011;31489;51.404;5.474;2024-02-04T11:27:45;9.25;;;7.13;;
45784;SDS011;31489;51.404;5.474;2024-02-04T11:30:11;11.52;;;7.55;;
45784;SDS011;31489;51.404;5.474;2024-02-04T11:32:40;11.60;;;7.68;;
45784;SDS011;31489;51.404;5.474;2024-02-04T11:35:06;11.23;;;7.30;;
45784;SDS011;31489;51.404;5.474;2024-02-04T11:37:33;10.18;;;7.35;;
45784;SDS011;31489;51.404;5.474;2024-02-04T11:39:59;11.73;;;7.93;;
45784;SDS011;31489;51.404;5.474;2024-02-04T11:42:25;9.88;;;7.07;;
45784;SDS011;31489;51.404;5.474;2024-02-04T11:45:12;8.60;;;7.20;;
45784;SDS011;31489;51.404;5.474;2024-02-04T11:47:39;12.18;;;7.07;;
45784;SDS011;31489;51.404;5.474;2024-02-04T11:50:05;11.60;;;7.07;;
45784;SDS011;31489;51.404;5.474;2024-02-04T11:52:32;9.73;;;6.88;;
45784;SDS011;31489;51.404;5.474;2024-02-04T11:54:58;10.02;;;6.95;;
45784;SDS011;31489;51.404;5.474;2024-02-04T11:57:24;8.07;;;7.07;;
45784;SDS011;31489;51.404;5.474;2024-02-04T11:59:51;9.40;;;6.70;;
45784;SDS011;31489;51.404;5.474;2024-02-04T12:02:22;7.82;;;6.72;;
45784;SDS011;31489;51.404;5.474;2024-02-04T12:04:48;9.02;;;7.07;;
45784;SDS011;31489;51.404;5.474;2024-02-04T12:07:14;11.40;;;6.70;;
45784;SDS011;31489;51.404;5.474;2024-02-04T12:09:40;10.00;;;6.70;;
45784;SDS011;31489;51.404;5.474;2024-02-04T12:12:07;9.68;;;6.95;;
45784;SDS011;31489;51.404;5.474;2024-02-04T12:14:34;11.65;;;7.32;;
45784;SDS011;31489;51.404;5.474;2024-02-04T12:17:10;10.40;;;7.65;;
45784;SDS011;31489;51.404;5.474;2024-02-04T12:19:36;15.80;;;7.30;;
45784;SDS011;31489;51.404;5.474;2024-02-04T12:22:03;10.35;;;6.65;;
45784;SDS011;31489;51.404;5.474;2024-02-04T12:24:34;9.20;;;7.10;;
45784;SDS011;31489;51.404;5.474;2024-02-04T12:27:00;8.50;;;6.20;;
45784;SDS011;31489;51.404;5.474;2024-02-04T12:29:30;10.57;;;6.95;;
45784;SDS011;31489;51.404;5.474;2024-02-04T12:32:00;11.93;;;6.30;;
45784;SDS011;31489;51.404;5.474;2024-02-04T12:34:30;10.30;;;6.65;;
45784;SDS011;31489;51.404;5.474;2024-02-04T12:36:59;9.45;;;6.10;;
45784;SDS011;31489;51.404;5.474;2024-02-04T12:39:25;8.50;;;5.82;;
45784;SDS011;31489;51.404;5.474;2024-02-04T12:41:51;9.50;;;5.90;;
45784;SDS011;31489;51.404;5.474;2024-02-04T12:44:17;9.80;;;6.32;;
45784;SDS011;31489;51.404;5.474;2024-02-04T12:46:49;9.10;;;6.03;;
45784;SDS011;31489;51.404;5.474;2024-02-04T12:49:20;7.32;;;5.82;;
45784;SDS011;31489;51.404;5.474;2024-02-04T12:51:50;11.35;;;5.82;;
45784;SDS011;31489;51.404;5.474;2024-02-04T12:54:20;9.40;;;6.18;;
45784;SDS011;31489;51.404;5.474;2024-02-04T12:56:49;8.55;;;5.88;;
45784;SDS011;31489;51.404;5.474;2024-02-04T12:59:29;8.73;;;5.78;;
45784;SDS011;31489;51.404;5.474;2024-02-04T13:02:07;8.23;;;5.40;;
45784;SDS011;31489;51.404;5.474;2024-02-04T13:04:37;9.32;;;6.20;;
45784;SDS011;31489;51.404;5.474;2024-02-04T13:07:07;5.40;;;4.80;;
45784;SDS011;31489;51.404;5.474;2024-02-04T13:09:34;6.28;;;5.05;;
45784;SDS011;31489;51.404;5.474;2024-02-04T13:12:07;7.28;;;5.15;;
45784;SDS011;31489;51.404;5.474;2024-02-04T13:14:34;6.53;;;5.38;;
45784;SDS011;31489;51.404;5.474;2024-02-04T13:17:01;8.23;;;5.32;;
45784;SDS011;31489;51.404;5.474;2024-02-04T13:19:37;7.97;;;4.90;;
45784;SDS011;31489;51.404;5.474;2024-02-04T13:22:04;9.27;;;5.35;;
45784;SDS011;31489;51.404;5.474;2024-02-04T13:24:31;7.88;;;6.00;;
45784;SDS011;31489;51.404;5.474;2024-02-04T13:26:57;9.60;;;5.35;;
45784;SDS011;31489;51.404;5.474;2024-02-04T13:29:23;9.48;;;5.03;;
45784;SDS011;31489;51.404;5.474;2024-02-04T13:31:49;7.97;;;5.63;;
45784;SDS011;31489;51.404;5.474;2024-02-04T13:34:15;7.28;;;5.85;;
45784;SDS011;31489;51.404;5.474;2024-02-04T13:36:41;7.45;;;5.22;;
45784;SDS011;31489;51.404;5.474;2024-02-04T13:39:07;8.75;;;4.93;;
45784;SDS011;31489;51.404;5.474;2024-02-04T13:41:33;7.05;;;5.00;;
45784;SDS011;31489;51.404;5.474;2024-02-04T13:43:58;7.13;;;5.05;;
45784;SDS011;31489;51.404;5.474;2024-02-04T13:46:24;6.00;;;4.80;;
45784;SDS011;31489;51.404;5.474;2024-02-04T13:48:50;9.85;;;5.20;;
45784;SDS011;31489;51.404;5.474;2024-02-04T13:51:16;6.63;;;4.63;;
45784;SDS011;31489;51.404;5.474;2024-02-04T13:53:42;7.18;;;4.95;;
45784;SDS011;31489;51.404;5.474;2024-02-04T13:56:07;5.45;;;4.57;;
45784;SDS011;31489;51.404;5.474;2024-02-04T13:58:33;5.18;;;4.68;;
45784;SDS011;31489;51.404;5.474;2024-02-04T14:00:59;8.18;;;4.63;;
45784;SDS011;31489;51.404;5.474;2024-02-04T14:03:25;6.63;;;4.70;;
45784;SDS011;31489;51.404;5.474;2024-02-04T14:05:50;7.82;;;4.82;;
45784;SDS011;31489;51.404;5.474;2024-02-04T14:08:16;6.63;;;4.50;;
45784;SDS011;31489;51.404;5.474;2024-02-04T14:10:42;6.35;;;4.55;;
45784;SDS011;31489;51.404;5.474;2024-02-04T14:13:08;6.38;;;4.35;;
45784;SDS011;31489;51.404;5.474;2024-02-04T14:15:33;9.20;;;4.90;;
45784;SDS011;31489;51.404;5.474;2024-02-04T14:17:59;7.32;;;4.22;;
45784;SDS011;31489;51.404;5.474;2024-02-04T14:20:25;8.32;;;4.32;;
45784;SDS011;31489;51.404;5.474;2024-02-04T14:22:51;5.72;;;3.97;;
45784;SDS011;31489;51.404;5.474;2024-02-04T14:25:17;5.85;;;3.85;;
45784;SDS011;31489;51.404;5.474;2024-02-04T14:27:44;7.93;;;4.05;;
45784;SDS011;31489;51.404;5.474;2024-02-04T14:30:10;8.15;;;3.75;;
45784;SDS011;31489;51.404;5.474;2024-02-04T14:32:36;5.57;;;3.95;;
45784;SDS011;31489;51.404;5.474;2024-02-04T14:35:01;7.50;;;4.00;;
45784;SDS011;31489;51.404;5.474;2024-02-04T14:37:29;4.82;;;3.55;;
45784;SDS011;31489;51.404;5.474;2024-02-04T14:39:57;6.07;;;3.83;;